Time;durP1;ratioP1;P1;durP2;ratioP2;P2;SDS_P1;SDS_P2;PMS_P1;PMS_P2;Temp;Humidity;BMP_temperature;BMP_pressure;BME280_temperature;BME280_humidity;BME280_pressure;Samples;Min_cycle;Max_cycle;Signal;HPM_P1;HPM_P2
2022/04/08 00:00:18;;;;;;;13.85;2.90;;;;;;;;;;5004684;28;20165;-80
2022/04/08 00:02:44;;;;;;;8.70;2.88;;;;;;;;;;5001587;28;20046;-80
2022/04/08 00:05:10;;;;;;;5.65;2.50;;;;;;;;;;4999744;28;20042;-80
2022/04/08 00:07:36;;;;;;;12.98;3.03;;;;;;;;;;5039039;28;20042;-80
2022/04/08 00:10:06;;;;;;;11.45;2.60;;;;;;;;;;5004487;28;20505;-79
2022/04/08 00:12:32;;;;;;;11.23;3.30;;;;;;;;;;5002482;28;20081;-80
2022/04/08 00:14:58;;;;;;;8.38;2.65;;;;;;;;;;5010418;28;20069;-82
2022/04/08 00:17:25;;;;;;;8.27;2.78;;;;;;;;;;5009070;28;20800;-82
2022/04/08 00:19:51;;;;;;;10.90;2.75;;;;;;;;;;5002399;28;20054;-81
2022/04/08 00:22:21;;;;;;;10.43;3.45;;;;;;;;;;5007247;28;20091;-81
2022/04/08 00:24:47;;;;;;;8.70;2.53;;;;;;;;;;5008126;28;20490;-81
2022/04/08 00:27:13;;;;;;;14.00;3.28;;;;;;;;;;5005121;28;20108;-82
2022/04/08 00:29:42;;;;;;;8.00;2.97;;;;;;;;;;5001448;28;20053;-81
2022/04/08 00:32:08;;;;;;;11.45;2.67;;;;;;;;;;5000149;28;20050;-81
2022/04/08 00:34:34;;;;;;;10.15;2.88;;;;;;;;;;5001405;28;20355;-81
2022/04/08 00:37:00;;;;;;;8.35;2.40;;;;;;;;;;5005602;28;20045;-81
2022/04/08 00:39:26;;;;;;;14.10;2.70;;;;;;;;;;5004545;28;20069;-81
2022/04/08 00:41:52;;;;;;;9.90;2.58;;;;;;;;;;5006659;28;20034;-81
2022/04/08 00:44:18;;;;;;;8.50;2.58;;;;;;;;;;5007222;28;20140;-81
2022/04/08 00:46:44;;;;;;;10.00;3.50;;;;;;;;;;5013304;28;20057;-81
2022/04/08 00:49:10;;;;;;;9.07;2.83;;;;;;;;;;5010797;28;20050;-81
2022/04/08 00:51:37;;;;;;;13.63;3.03;;;;;;;;;;5009136;28;20116;-81
2022/04/08 00:54:03;;;;;;;10.68;3.15;;;;;;;;;;5005058;28;20046;-81
2022/04/08 00:56:30;;;;;;;10.65;2.75;;;;;;;;;;5010442;28;20485;-81
2022/04/08 00:58:56;;;;;;;14.77;3.03;;;;;;;;;;5003095;28;20046;-81
2022/04/08 01:01:23;;;;;;;12.73;3.03;;;;;;;;;;5002842;28;20100;-81
2022/04/08 01:03:52;;;;;;;9.27;3.15;;;;;;;;;;5004865;28;20135;-81
2022/04/08 01:06:19;;;;;;;9.98;3.78;;;;;;;;;;4999243;28;20057;-81
2022/04/08 01:08:45;;;;;;;8.20;2.83;;;;;;;;;;5003912;28;20437;-82
2022/04/08 01:11:11;;;;;;;12.38;2.78;;;;;;;;;;5005577;28;20053;-81
2022/04/08 01:13:37;;;;;;;8.38;2.60;;;;;;;;;;5002440;28;20120;-80
2022/04/08 01:16:05;;;;;;;9.38;2.47;;;;;;;;;;5008889;28;20466;-81
2022/04/08 01:18:31;;;;;;;8.70;2.70;;;;;;;;;;5008753;28;20113;-80
2022/04/08 01:20:57;;;;;;;12.93;3.13;;;;;;;;;;5010122;28;20046;-80
2022/04/08 01:23:23;;;;;;;9.25;2.70;;;;;;;;;;5004918;28;20052;-81
2022/04/08 01:25:49;;;;;;;13.05;3.33;;;;;;;;;;5012827;28;20084;-81
2022/04/08 01:28:16;;;;;;;10.52;2.92;;;;;;;;;;5009445;28;20046;-81
2022/04/08 01:30:42;;;;;;;13.55;2.90;;;;;;;;;;5012669;28;20482;-81
2022/04/08 01:33:07;;;;;;;11.05;3.08;;;;;;;;;;5010322;28;20056;-80
2022/04/08 01:35:34;;;;;;;8.23;2.65;;;;;;;;;;5010044;28;20044;-83
2022/04/08 01:38:00;;;;;;;13.27;3.15;;;;;;;;;;5009440;28;20082;-80
2022/04/08 01:40:26;;;;;;;10.82;2.80;;;;;;;;;;5008750;28;20073;-80
2022/04/08 01:42:51;;;;;;;9.00;2.85;;;;;;;;;;5007032;28;20463;-81
2022/04/08 01:45:17;;;;;;;9.75;2.90;;;;;;;;;;5008562;28;20054;-81
2022/04/08 01:47:44;;;;;;;7.38;2.50;;;;;;;;;;5001690;28;20441;-81
2022/04/08 01:50:10;;;;;;;12.98;3.40;;;;;;;;;;5005245;28;20042;-80
2022/04/08 01:52:36;;;;;;;11.88;3.50;;;;;;;;;;5009568;28;20104;-81
2022/04/08 01:55:05;;;;;;;10.20;3.80;;;;;;;;;;5013381;28;20433;-81
2022/04/08 01:57:31;;;;;;;11.45;3.58;;;;;;;;;;5006963;28;20410;-81
2022/04/08 01:59:57;;;;;;;10.25;3.30;;;;;;;;;;5008658;28;20089;-80
2022/04/08 02:02:23;;;;;;;9.70;3.47;;;;;;;;;;5041249;28;20080;-81
2022/04/08 02:04:49;;;;;;;7.13;2.47;;;;;;;;;;5013929;28;20477;-81
2022/04/08 02:07:15;;;;;;;9.23;2.60;;;;;;;;;;5008735;28;20042;-81
2022/04/08 02:09:41;;;;;;;15.20;3.40;;;;;;;;;;5012804;28;20081;-81
2022/04/08 02:12:07;;;;;;;9.65;2.70;;;;;;;;;;5001872;28;20073;-80
2022/04/08 02:14:33;;;;;;;7.25;2.30;;;;;;;;;;5004311;28;20516;-81
2022/04/08 02:16:59;;;;;;;9.57;2.92;;;;;;;;;;5008203;28;20478;-83
2022/04/08 02:19:25;;;;;;;11.25;2.47;;;;;;;;;;5007869;28;20053;-80
2022/04/08 02:21:51;;;;;;;13.57;2.80;;;;;;;;;;5007735;28;20053;-80
2022/04/08 02:24:17;;;;;;;7.28;2.47;;;;;;;;;;5003485;28;20046;-81
2022/04/08 02:26:44;;;;;;;9.10;2.20;;;;;;;;;;5010022;28;20133;-81
2022/04/08 02:29:10;;;;;;;7.80;2.42;;;;;;;;;;5008164;28;20053;-81
2022/04/08 02:31:36;;;;;;;9.70;2.50;;;;;;;;;;5007824;28;20042;-81
2022/04/08 02:34:02;;;;;;;5.93;2.40;;;;;;;;;;5009979;28;20088;-81
2022/04/08 02:36:28;;;;;;;14.40;3.53;;;;;;;;;;5007649;28;20498;-81
2022/04/08 02:38:54;;;;;;;17.08;4.65;;;;;;;;;;5010746;28;20075;-82
2022/04/08 02:41:20;;;;;;;16.00;2.95;;;;;;;;;;5008008;28;20125;-80
2022/04/08 02:43:48;;;;;;;10.77;2.65;;;;;;;;;;5007299;28;20042;-80
2022/04/08 02:46:14;;;;;;;14.65;3.00;;;;;;;;;;5007462;28;20093;-80
2022/04/08 02:48:40;;;;;;;4.05;2.13;;;;;;;;;;5042070;28;20128;-80
2022/04/08 02:51:06;;;;;;;4.97;2.10;;;;;;;;;;5006829;28;20050;-80
2022/04/08 02:53:32;;;;;;;6.50;2.13;;;;;;;;;;5006132;28;20466;-81
2022/04/08 02:55:58;;;;;;;8.45;2.35;;;;;;;;;;5011140;28;20057;-80
2022/04/08 02:58:24;;;;;;;8.63;2.83;;;;;;;;;;5006805;28;20041;-81
2022/04/08 03:00:50;;;;;;;8.02;2.63;;;;;;;;;;5006552;28;20038;-81
2022/04/08 03:03:16;;;;;;;10.50;3.33;;;;;;;;;;5008682;28;20429;-80
2022/04/08 03:05:42;;;;;;;9.70;2.90;;;;;;;;;;5009300;28;20092;-81
2022/04/08 03:08:08;;;;;;;6.53;2.67;;;;;;;;;;5005499;28;20500;-81
2022/04/08 03:10:34;;;;;;;8.15;2.85;;;;;;;;;;5037676;28;20042;-81
2022/04/08 03:13:00;;;;;;;6.32;2.40;;;;;;;;;;5005943;28;20119;-81
2022/04/08 03:15:26;;;;;;;8.45;2.58;;;;;;;;;;5004532;28;21041;-81
2022/04/08 03:17:52;;;;;;;5.65;2.10;;;;;;;;;;5001377;28;20046;-81
2022/04/08 03:20:18;;;;;;;7.40;2.20;;;;;;;;;;5000932;28;20057;-81
2022/04/08 03:22:44;;;;;;;7.10;2.22;;;;;;;;;;5011432;28;20069;-81
2022/04/08 03:25:10;;;;;;;6.95;2.65;;;;;;;;;;5005008;28;20069;-81
2022/04/08 03:27:36;;;;;;;7.25;2.47;;;;;;;;;;5012548;28;20077;-81
2022/04/08 03:30:03;;;;;;;7.80;2.63;;;;;;;;;;5008451;28;20049;-82
2022/04/08 03:32:29;;;;;;;6.35;2.28;;;;;;;;;;5033688;28;20049;-81
2022/04/08 03:34:57;;;;;;;4.32;2.30;;;;;;;;;;5006325;28;20042;-81
2022/04/08 03:37:24;;;;;;;9.52;2.20;;;;;;;;;;5003611;28;20383;-81
2022/04/08 03:39:50;;;;;;;6.70;2.50;;;;;;;;;;5004502;28;20466;-82
2022/04/08 03:42:16;;;;;;;7.25;2.40;;;;;;;;;;5007008;28;20046;-82
2022/04/08 03:44:42;;;;;;;5.60;2.58;;;;;;;;;;5004810;28;20450;-82
2022/04/08 03:47:08;;;;;;;7.82;2.63;;;;;;;;;;5008326;28;20497;-82
2022/04/08 03:49:36;;;;;;;5.65;1.90;;;;;;;;;;5002218;28;20050;-81
2022/04/08 03:52:04;;;;;;;13.50;3.10;;;;;;;;;;5008282;28;20129;-81
2022/04/08 03:54:31;;;;;;;10.82;3.13;;;;;;;;;;5005479;28;20042;-80
2022/04/08 03:56:57;;;;;;;6.80;3.08;;;;;;;;;;5000789;28;20052;-81
2022/04/08 03:59:24;;;;;;;5.78;2.50;;;;;;;;;;5005958;28;20054;-81
2022/04/08 04:01:50;;;;;;;6.15;2.60;;;;;;;;;;5005048;28;20057;-81
2022/04/08 04:04:16;;;;;;;7.47;2.65;;;;;;;;;;5006358;28;20049;-81
2022/04/08 04:06:42;;;;;;;10.13;2.70;;;;;;;;;;4997549;28;20152;-81
2022/04/08 04:09:08;;;;;;;5.13;2.40;;;;;;;;;;5003716;28;20417;-81
2022/04/08 04:11:35;;;;;;;2.55;2.10;;;;;;;;;;5005206;28;20513;-82
2022/04/08 04:14:02;;;;;;;4.13;2.20;;;;;;;;;;5006536;28;20115;-81
2022/04/08 04:16:28;;;;;;;7.90;2.30;;;;;;;;;;5038485;28;20522;-82
2022/04/08 04:18:55;;;;;;;4.60;2.42;;;;;;;;;;5009026;28;20111;-82
2022/04/08 04:21:21;;;;;;;4.47;2.10;;;;;;;;;;5007921;28;20045;-81
2022/04/08 04:23:47;;;;;;;4.18;2.20;;;;;;;;;;5004133;28;20045;-81
2022/04/08 04:26:13;;;;;;;5.80;2.17;;;;;;;;;;5002520;28;20347;-82
2022/04/08 04:28:39;;;;;;;4.50;2.60;;;;;;;;;;4997228;28;20525;-82
2022/04/08 04:31:06;;;;;;;6.00;2.30;;;;;;;;;;5006013;28;20046;-82
2022/04/08 04:33:32;;;;;;;4.40;2.08;;;;;;;;;;5006121;28;20057;-81
2022/04/08 04:35:58;;;;;;;5.22;2.17;;;;;;;;;;5005370;28;20061;-81
2022/04/08 04:38:24;;;;;;;7.70;2.60;;;;;;;;;;5003585;28;20054;-81
2022/04/08 04:40:50;;;;;;;6.55;2.50;;;;;;;;;;5010592;28;20044;-82
2022/04/08 04:43:16;;;;;;;7.03;2.60;;;;;;;;;;5008686;28;20045;-81
2022/04/08 04:45:43;;;;;;;6.13;2.50;;;;;;;;;;5006386;28;20493;-81
2022/04/08 04:48:11;;;;;;;6.13;2.45;;;;;;;;;;5007161;28;20045;-82
2022/04/08 04:50:37;;;;;;;6.55;2.70;;;;;;;;;;5008994;28;20041;-81
2022/04/08 04:53:03;;;;;;;7.45;2.67;;;;;;;;;;5011734;28;20631;-81
2022/04/08 04:55:29;;;;;;;10.93;2.97;;;;;;;;;;5011641;28;20433;-81
2022/04/08 04:57:56;;;;;;;7.78;3.38;;;;;;;;;;5017431;28;20053;-81
2022/04/08 05:00:22;;;;;;;8.18;2.65;;;;;;;;;;4998800;28;20046;-81
2022/04/08 05:02:48;;;;;;;9.43;3.22;;;;;;;;;;5041368;28;20043;-81
2022/04/08 05:05:14;;;;;;;10.52;3.28;;;;;;;;;;5012446;28;20406;-81
2022/04/08 05:07:41;;;;;;;9.30;2.85;;;;;;;;;;5006312;28;20389;-81
2022/04/08 05:10:07;;;;;;;8.07;2.63;;;;;;;;;;5006917;28;20493;-82
2022/04/08 05:12:35;;;;;;;7.93;3.10;;;;;;;;;;5009950;28;20038;-84
2022/04/08 05:15:02;;;;;;;12.27;3.03;;;;;;;;;;5010862;28;20042;-81
2022/04/08 05:17:28;;;;;;;14.27;3.85;;;;;;;;;;5005084;28;20060;-81
2022/04/08 05:19:55;;;;;;;9.77;3.42;;;;;;;;;;5005378;28;20046;-81
2022/04/08 05:22:21;;;;;;;11.45;3.85;;;;;;;;;;5008563;28;20465;-81
2022/04/08 05:24:47;;;;;;;10.98;2.67;;;;;;;;;;5005637;28;20050;-82
2022/04/08 05:27:12;;;;;;;8.60;3.05;;;;;;;;;;5009272;28;20057;-81
2022/04/08 05:29:39;;;;;;;13.38;3.10;;;;;;;;;;5040618;28;20458;-82
2022/04/08 05:32:05;;;;;;;14.10;3.95;;;;;;;;;;5009556;28;20050;-81
2022/04/08 05:34:31;;;;;;;9.63;3.40;;;;;;;;;;5007101;28;20540;-82
2022/04/08 05:36:57;;;;;;;11.80;2.92;;;;;;;;;;5004490;28;20053;-82
2022/04/08 05:39:23;;;;;;;19.23;4.22;;;;;;;;;;5007497;28;21331;-82
2022/04/08 05:41:49;;;;;;;12.93;3.45;;;;;;;;;;5004110;28;20037;-81
2022/04/08 05:44:15;;;;;;;12.20;3.38;;;;;;;;;;5010610;28;20056;-82
2022/04/08 05:46:41;;;;;;;7.55;3.10;;;;;;;;;;5009996;28;20108;-82
2022/04/08 05:49:07;;;;;;;13.30;3.20;;;;;;;;;;5005931;28;20046;-82
2022/04/08 05:51:33;;;;;;;8.77;2.80;;;;;;;;;;5012530;28;20069;-81
2022/04/08 05:53:59;;;;;;;8.05;2.67;;;;;;;;;;5010519;28;20129;-81
2022/04/08 05:56:25;;;;;;;5.95;3.03;;;;;;;;;;5011522;28;20156;-81
2022/04/08 05:58:51;;;;;;;11.20;3.30;;;;;;;;;;5006505;28;20054;-81
2022/04/08 06:01:17;;;;;;;7.25;2.95;;;;;;;;;;5007421;28;20054;-81
2022/04/08 06:03:43;;;;;;;8.40;2.80;;;;;;;;;;5010098;28;20111;-81
2022/04/08 06:06:09;;;;;;;6.20;2.40;;;;;;;;;;5008681;28;20439;-81
2022/04/08 06:08:38;;;;;;;8.98;3.40;;;;;;;;;;5011800;28;20092;-82
2022/04/08 06:11:04;;;;;;;5.28;2.42;;;;;;;;;;5010509;28;20050;-82
2022/04/08 06:13:30;;;;;;;9.82;2.85;;;;;;;;;;5009155;28;20049;-81
2022/04/08 06:15:56;;;;;;;8.10;2.85;;;;;;;;;;5012564;28;20060;-81
2022/04/08 06:18:22;;;;;;;7.47;3.20;;;;;;;;;;5009471;28;20509;-81
2022/04/08 06:20:48;;;;;;;6.28;2.95;;;;;;;;;;5010845;28;20658;-82
2022/04/08 06:23:15;;;;;;;8.57;2.95;;;;;;;;;;5008791;28;20504;-81
2022/04/08 06:25:41;;;;;;;7.85;2.42;;;;;;;;;;5011802;28;20037;-81
2022/04/08 06:28:07;;;;;;;7.10;2.28;;;;;;;;;;5000023;28;20272;-82
2022/04/08 06:30:36;;;;;;;7.28;2.28;;;;;;;;;;5011028;28;20502;-82
2022/04/08 06:33:03;;;;;;;4.80;1.70;;;;;;;;;;5006082;28;20491;-82
2022/04/08 06:35:29;;;;;;;8.75;2.30;;;;;;;;;;5013745;28;20501;-82
2022/04/08 06:38:05;;;;;;;5.22;2.10;;;;;;;;;;5014983;28;20481;-82
2022/04/08 06:40:35;;;;;;;7.15;2.33;;;;;;;;;;5008258;28;20048;-81
2022/04/08 06:43:01;;;;;;;3.70;2.30;;;;;;;;;;5051299;28;20103;-82
2022/04/08 06:45:27;;;;;;;3.63;1.80;;;;;;;;;;5016229;28;20120;-81
2022/04/08 06:47:53;;;;;;;4.75;2.20;;;;;;;;;;5030648;28;20065;-81
2022/04/08 06:50:20;;;;;;;5.25;2.03;;;;;;;;;;5017843;28;20046;-81
2022/04/08 06:52:46;;;;;;;4.00;1.90;;;;;;;;;;4994135;28;20074;-82
2022/04/08 06:55:13;;;;;;;4.78;2.10;;;;;;;;;;5012908;28;20053;-81
2022/04/08 06:57:39;;;;;;;5.57;1.90;;;;;;;;;;5012133;28;20053;-80
2022/04/08 07:00:06;;;;;;;4.57;1.95;;;;;;;;;;5016719;28;20076;-80
2022/04/08 07:02:32;;;;;;;3.92;1.80;;;;;;;;;;5016287;28;20057;-80
2022/04/08 07:04:58;;;;;;;4.03;2.20;;;;;;;;;;5020779;28;20053;-80
2022/04/08 07:07:34;;;;;;;3.40;1.85;;;;;;;;;;5018757;28;20058;-80
2022/04/08 07:10:00;;;;;;;3.60;2.20;;;;;;;;;;5039836;28;20577;-80
2022/04/08 07:12:26;;;;;;;6.40;2.60;;;;;;;;;;5010265;28;20084;-80
2022/04/08 07:14:52;;;;;;;7.05;2.35;;;;;;;;;;5012372;28;20052;-81
2022/04/08 07:17:25;;;;;;;4.85;2.25;;;;;;;;;;5022124;28;20045;-81
2022/04/08 07:19:51;;;;;;;2.83;2.13;;;;;;;;;;5003737;28;20057;-81
2022/04/08 07:22:17;;;;;;;6.55;2.40;;;;;;;;;;5007143;28;20486;-81
2022/04/08 07:24:43;;;;;;;4.47;2.40;;;;;;;;;;5011950;28;20125;-82
2022/04/08 07:27:09;;;;;;;5.07;2.47;;;;;;;;;;5004831;28;20042;-81
2022/04/08 07:29:35;;;;;;;4.53;2.22;;;;;;;;;;5010151;28;20062;-82
2022/04/08 07:32:01;;;;;;;7.68;2.30;;;;;;;;;;5044420;28;20053;-80
2022/04/08 07:34:27;;;;;;;3.92;2.17;;;;;;;;;;5002071;28;20062;-81
2022/04/08 07:36:53;;;;;;;6.75;2.28;;;;;;;;;;5007077;28;20904;-81
2022/04/08 07:39:19;;;;;;;7.03;2.50;;;;;;;;;;5010201;28;20058;-82
2022/04/08 07:41:45;;;;;;;4.18;2.13;;;;;;;;;;5003744;28;20034;-83
2022/04/08 07:44:14;;;;;;;6.72;2.38;;;;;;;;;;4999799;28;20057;-84
2022/04/08 07:46:40;;;;;;;5.85;2.50;;;;;;;;;;5007131;28;20060;-82
2022/04/08 07:49:06;;;;;;;5.13;2.40;;;;;;;;;;5004642;28;20081;-82
2022/04/08 07:51:35;;;;;;;5.97;2.53;;;;;;;;;;5001964;28;20049;-81
2022/04/08 07:54:01;;;;;;;5.68;2.40;;;;;;;;;;5009947;28;20045;-81
2022/04/08 07:56:28;;;;;;;11.07;2.80;;;;;;;;;;5006162;28;20466;-82
2022/04/08 07:58:54;;;;;;;7.82;3.13;;;;;;;;;;5035958;28;20054;-81
2022/04/08 08:01:20;;;;;;;9.63;2.65;;;;;;;;;;5034704;28;20091;-81
2022/04/08 08:03:48;;;;;;;5.13;2.85;;;;;;;;;;5004704;28;20130;-82
2022/04/08 08:06:15;;;;;;;6.63;2.35;;;;;;;;;;5009016;28;20049;-82
2022/04/08 08:08:45;;;;;;;5.28;2.17;;;;;;;;;;5008820;28;20037;-82
2022/04/08 08:11:13;;;;;;;5.93;2.35;;;;;;;;;;5008879;28;20048;-81
2022/04/08 08:13:42;;;;;;;4.45;2.63;;;;;;;;;;5033849;28;20057;-79
2022/04/08 08:16:09;;;;;;;3.67;2.20;;;;;;;;;;5006381;28;20049;-82
2022/04/08 08:18:35;;;;;;;4.60;2.20;;;;;;;;;;5008727;28;20054;-81
2022/04/08 08:21:01;;;;;;;5.80;2.20;;;;;;;;;;4996650;28;20092;-82
2022/04/08 08:23:27;;;;;;;7.72;2.20;;;;;;;;;;5042037;28;20482;-82
2022/04/08 08:25:55;;;;;;;6.32;2.38;;;;;;;;;;5012770;28;20038;-81
2022/04/08 08:28:22;;;;;;;8.50;2.58;;;;;;;;;;4998223;28;20062;-81
2022/04/08 08:30:48;;;;;;;4.65;2.10;;;;;;;;;;5020993;28;20560;-84
2022/04/08 08:33:14;;;;;;;4.90;2.10;;;;;;;;;;5002469;28;20050;-80
2022/04/08 08:35:40;;;;;;;6.93;2.50;;;;;;;;;;5012402;28;20422;-83
2022/04/08 08:38:07;;;;;;;7.22;2.30;;;;;;;;;;5011543;28;20065;-82
2022/04/08 08:40:34;;;;;;;4.78;2.75;;;;;;;;;;5041335;28;20046;-83
2022/04/08 08:43:01;;;;;;;9.00;2.47;;;;;;;;;;5007068;28;20378;-83
2022/04/08 08:45:34;;;;;;;2.60;2.00;;;;;;;;;;5006892;28;20558;-82
2022/04/08 08:48:01;;;;;;;7.55;2.40;;;;;;;;;;5020303;28;20041;-82
2022/04/08 08:50:28;;;;;;;6.35;2.55;;;;;;;;;;5015943;28;20049;-83
2022/04/08 08:52:54;;;;;;;5.15;2.80;;;;;;;;;;5010115;28;20046;-84
2022/04/08 08:55:21;;;;;;;5.20;2.20;;;;;;;;;;5009028;28;20045;-84
2022/04/08 08:57:50;;;;;;;4.75;2.05;;;;;;;;;;5011654;28;20208;-84
2022/04/08 09:00:18;;;;;;;7.22;2.50;;;;;;;;;;5007057;28;20049;-84
2022/04/08 09:02:45;;;;;;;5.07;2.05;;;;;;;;;;5010870;28;20052;-84
2022/04/08 09:05:40;;;;;;;6.90;2.20;;;;;;;;;;5013142;28;20343;-83
2022/04/08 09:08:08;;;;;;;6.57;2.17;;;;;;;;;;5033567;28;20104;-84
2022/04/08 09:10:35;;;;;;;2.80;2.10;;;;;;;;;;5010162;28;20120;-85
2022/04/08 09:13:02;;;;;;;4.72;2.22;;;;;;;;;;5008614;28;20077;-84
2022/04/08 09:15:28;;;;;;;4.28;2.25;;;;;;;;;;5011709;28;20473;-84
2022/04/08 09:18:04;;;;;;;7.85;2.17;;;;;;;;;;5010125;28;20092;-84
2022/04/08 09:20:38;;;;;;;4.55;2.35;;;;;;;;;;5008348;28;20037;-83
2022/04/08 09:23:06;;;;;;;4.38;2.03;;;;;;;;;;5011525;28;20045;-83
2022/04/08 09:25:32;;;;;;;6.03;2.55;;;;;;;;;;5011629;28;20512;-82
2022/04/08 09:28:05;;;;;;;7.07;2.83;;;;;;;;;;5004566;28;20517;-82
2022/04/08 09:30:31;;;;;;;5.72;2.50;;;;;;;;;;5009553;28;20233;-82
2022/04/08 09:32:58;;;;;;;7.63;2.30;;;;;;;;;;5010536;28;20050;-82
2022/04/08 09:35:24;;;;;;;7.20;2.20;;;;;;;;;;5007307;28;20120;-84
2022/04/08 09:38:01;;;;;;;9.25;2.80;;;;;;;;;;5011127;28;20065;-83
2022/04/08 09:40:34;;;;;;;3.92;1.92;;;;;;;;;;4999872;28;20081;-82
2022/04/08 09:43:00;;;;;;;3.25;1.88;;;;;;;;;;5005608;28;20048;-82
2022/04/08 09:45:29;;;;;;;2.83;2.25;;;;;;;;;;5001771;28;20050;-82
2022/04/08 09:47:55;;;;;;;4.07;1.88;;;;;;;;;;5006502;28;20100;-83
2022/04/08 09:50:21;;;;;;;2.63;1.60;;;;;;;;;;5001436;28;20050;-82
2022/04/08 09:52:47;;;;;;;3.33;2.13;;;;;;;;;;5007032;28;20050;-80
2022/04/08 09:55:13;;;;;;;5.30;2.35;;;;;;;;;;4998007;28;20052;-81
2022/04/08 09:57:40;;;;;;;5.82;2.30;;;;;;;;;;5006895;28;20061;-81
2022/04/08 10:00:07;;;;;;;5.28;2.40;;;;;;;;;;5003179;28;20046;-81
2022/04/08 10:02:34;;;;;;;5.32;1.90;;;;;;;;;;5006001;28;20138;-81
2022/04/08 10:05:00;;;;;;;5.18;2.70;;;;;;;;;;5012477;28;20034;-80
2022/04/08 10:07:27;;;;;;;4.40;2.25;;;;;;;;;;5007932;28;20074;-80
2022/04/08 10:10:00;;;;;;;5.32;2.20;;;;;;;;;;5005850;28;20042;-80
2022/04/08 10:12:41;;;;;;;6.05;2.20;;;;;;;;;;5009484;28;20042;-80
2022/04/08 10:15:14;;;;;;;4.50;2.40;;;;;;;;;;5004862;28;20347;-79
2022/04/08 10:17:40;;;;;;;5.57;2.80;;;;;;;;;;5008039;28;20466;-81
2022/04/08 10:20:16;;;;;;;8.27;2.47;;;;;;;;;;5008972;28;20184;-81
2022/04/08 10:22:43;;;;;;;11.98;2.70;;;;;;;;;;5007749;28;20065;-82
2022/04/08 10:25:15;;;;;;;5.75;2.38;;;;;;;;;;5007579;28;20675;-82
2022/04/08 10:27:43;;;;;;;8.63;2.60;;;;;;;;;;5035311;28;20058;-81
2022/04/08 10:30:14;;;;;;;9.75;2.58;;;;;;;;;;5008489;28;20297;-82
2022/04/08 10:32:40;;;;;;;7.07;2.13;;;;;;;;;;5012805;28;20046;-82
2022/04/08 10:35:14;;;;;;;4.90;2.10;;;;;;;;;;5004894;28;20561;-81
2022/04/08 10:37:41;;;;;;;8.25;2.20;;;;;;;;;;5037472;28;20064;-80
2022/04/08 10:40:10;;;;;;;5.97;2.60;;;;;;;;;;5009407;28;20046;-80
2022/04/08 10:42:36;;;;;;;5.78;2.40;;;;;;;;;;5010965;28;20044;-79
2022/04/08 10:45:14;;;;;;;3.42;2.22;;;;;;;;;;5016277;28;20397;-79
2022/04/08 10:47:47;;;;;;;6.53;2.20;;;;;;;;;;5036282;28;20043;-80
2022/04/08 10:50:23;;;;;;;3.35;2.25;;;;;;;;;;4999975;28;20062;-81
2022/04/08 10:52:49;;;;;;;4.85;2.03;;;;;;;;;;5005929;28;20049;-81
2022/04/08 10:55:15;;;;;;;6.03;2.13;;;;;;;;;;5006097;28;20086;-81
2022/04/08 10:57:46;;;;;;;6.80;2.20;;;;;;;;;;5007545;28;20042;-81
2022/04/08 11:00:13;;;;;;;6.55;2.38;;;;;;;;;;5007474;28;20069;-80
2022/04/08 11:02:41;;;;;;;6.18;2.35;;;;;;;;;;5005512;28;20136;-80
2022/04/08 11:05:08;;;;;;;4.97;2.42;;;;;;;;;;5000063;28;20619;-79
2022/04/08 11:07:35;;;;;;;7.78;2.80;;;;;;;;;;5038766;28;20050;-80
2022/04/08 11:10:01;;;;;;;7.15;2.53;;;;;;;;;;5005247;28;20096;-82
2022/04/08 11:12:29;;;;;;;3.60;2.05;;;;;;;;;;5010959;28;20449;-82
2022/04/08 11:14:58;;;;;;;7.90;2.58;;;;;;;;;;5012106;28;20585;-81
2022/04/08 11:17:24;;;;;;;7.18;2.33;;;;;;;;;;5015308;28;20391;-80
2022/04/08 11:19:50;;;;;;;9.02;2.25;;;;;;;;;;5005438;28;20042;-80
2022/04/08 11:22:19;;;;;;;8.40;2.40;;;;;;;;;;5018824;28;20711;-81
2022/04/08 11:24:45;;;;;;;5.53;2.28;;;;;;;;;;5010120;28;20045;-80
2022/04/08 11:27:12;;;;;;;4.85;2.05;;;;;;;;;;5005453;28;20037;-81
2022/04/08 11:29:39;;;;;;;6.15;2.13;;;;;;;;;;5007449;28;20144;-81
2022/04/08 11:32:09;;;;;;;6.03;2.35;;;;;;;;;;5008602;28;20049;-78
2022/04/08 11:34:36;;;;;;;5.47;2.30;;;;;;;;;;5009500;28;20050;-77
2022/04/08 11:37:03;;;;;;;5.13;2.42;;;;;;;;;;5005865;28;20042;-79
2022/04/08 11:39:32;;;;;;;5.32;2.22;;;;;;;;;;5012498;28;20054;-80
2022/04/08 11:41:59;;;;;;;6.00;2.38;;;;;;;;;;5001859;28;20541;-81
2022/04/08 11:44:27;;;;;;;4.97;2.10;;;;;;;;;;5003174;28;20612;-81
2022/04/08 11:47:04;;;;;;;4.95;2.35;;;;;;;;;;5010196;28;20249;-80
2022/04/08 11:49:30;;;;;;;5.50;2.05;;;;;;;;;;5029719;28;20383;-80
2022/04/08 11:52:07;;;;;;;4.97;2.20;;;;;;;;;;5013099;28;20104;-80
2022/04/08 11:54:37;;;;;;;7.18;2.00;;;;;;;;;;5000764;28;20566;-81
2022/04/08 11:57:04;;;;;;;6.13;2.13;;;;;;;;;;5007886;28;20049;-81
2022/04/08 11:59:33;;;;;;;5.47;2.08;;;;;;;;;;5038567;28;20053;-81
2022/04/08 12:01:59;;;;;;;5.63;2.33;;;;;;;;;;5006999;28;20390;-81
2022/04/08 12:04:26;;;;;;;8.20;2.63;;;;;;;;;;5004794;28;20046;-80
2022/04/08 12:06:52;;;;;;;5.35;2.20;;;;;;;;;;5007503;28;20052;-81
2022/04/08 12:09:20;;;;;;;4.72;2.08;;;;;;;;;;5005839;28;20108;-81
2022/04/08 12:11:46;;;;;;;8.13;2.35;;;;;;;;;;5004112;28;20048;-81
2022/04/08 12:14:14;;;;;;;6.85;2.25;;;;;;;;;;5005991;28;20511;-81
2022/04/08 12:16:40;;;;;;;10.25;2.47;;;;;;;;;;5006108;28;20121;-81
2022/04/08 12:19:08;;;;;;;4.05;1.88;;;;;;;;;;5001355;28;20042;-80
2022/04/08 12:21:34;;;;;;;5.80;2.17;;;;;;;;;;5010381;28;20045;-78
2022/04/08 12:24:02;;;;;;;5.82;2.30;;;;;;;;;;5010624;28;20049;-77
2022/04/08 12:26:38;;;;;;;6.28;2.33;;;;;;;;;;5005171;28;20816;-77
2022/04/08 12:29:07;;;;;;;5.65;2.05;;;;;;;;;;5010780;28;20133;-79
2022/04/08 12:31:33;;;;;;;6.05;2.38;;;;;;;;;;5002560;28;20053;-78
2022/04/08 12:34:02;;;;;;;8.43;2.00;;;;;;;;;;5007486;28;20038;-77
2022/04/08 12:36:28;;;;;;;6.38;2.45;;;;;;;;;;5008384;28;20053;-78
2022/04/08 12:38:54;;;;;;;5.63;2.30;;;;;;;;;;5006399;28;20501;-79
2022/04/08 12:41:20;;;;;;;7.28;2.20;;;;;;;;;;5012090;28;20046;-82
2022/04/08 12:43:46;;;;;;;7.10;2.10;;;;;;;;;;4999797;28;20057;-80
2022/04/08 12:46:12;;;;;;;8.02;2.60;;;;;;;;;;5003395;28;20398;-81
2022/04/08 12:48:38;;;;;;;6.55;2.17;;;;;;;;;;5009206;28;20046;-81
2022/04/08 12:51:07;;;;;;;4.22;2.05;;;;;;;;;;5046605;28;20461;-80
2022/04/08 12:53:33;;;;;;;4.65;2.03;;;;;;;;;;5041185;28;20516;-80
2022/04/08 12:55:59;;;;;;;6.60;2.03;;;;;;;;;;5006693;28;20129;-80
2022/04/08 12:58:25;;;;;;;4.28;1.90;;;;;;;;;;5043082;28;20042;-81
2022/04/08 13:00:54;;;;;;;4.40;2.20;;;;;;;;;;5006271;28;20104;-81
2022/04/08 13:03:20;;;;;;;8.10;2.15;;;;;;;;;;5003503;28;20077;-80
2022/04/08 13:05:46;;;;;;;5.55;2.40;;;;;;;;;;5005016;28;20049;-81
2022/04/08 13:08:12;;;;;;;5.85;2.13;;;;;;;;;;5008381;28;20049;-80
2022/04/08 13:10:38;;;;;;;7.47;2.20;;;;;;;;;;5005569;28;20445;-80
2022/04/08 13:13:04;;;;;;;5.43;2.30;;;;;;;;;;5010694;28;20041;-80
2022/04/08 13:15:30;;;;;;;4.93;2.33;;;;;;;;;;5007980;28;20046;-80
2022/04/08 13:17:58;;;;;;;7.05;2.30;;;;;;;;;;5012529;28;20069;-80
2022/04/08 13:20:24;;;;;;;6.00;2.47;;;;;;;;;;5010287;28;20050;-80
2022/04/08 13:22:50;;;;;;;6.05;2.17;;;;;;;;;;5009864;28;20052;-80
2022/04/08 13:25:16;;;;;;;3.97;2.13;;;;;;;;;;5009674;28;20367;-80
2022/04/08 13:27:42;;;;;;;10.95;2.00;;;;;;;;;;5010355;28;20057;-80
2022/04/08 13:30:09;;;;;;;4.35;1.70;;;;;;;;;;5004352;28;20072;-80
2022/04/08 13:32:38;;;;;;;4.65;2.00;;;;;;;;;;5011943;28;20099;-81
2022/04/08 13:35:05;;;;;;;6.43;2.20;;;;;;;;;;5006436;28;20045;-81
2022/04/08 13:37:31;;;;;;;5.10;1.77;;;;;;;;;;5011329;28;20041;-80
2022/04/08 13:39:57;;;;;;;6.30;2.55;;;;;;;;;;5006479;28;20053;-79
2022/04/08 13:42:23;;;;;;;6.50;2.55;;;;;;;;;;5012354;28;20050;-79
2022/04/08 13:44:49;;;;;;;5.13;1.90;;;;;;;;;;5008689;28;20045;-80
2022/04/08 13:47:18;;;;;;;6.45;2.30;;;;;;;;;;5024347;28;20406;-82
2022/04/08 13:49:44;;;;;;;7.50;2.88;;;;;;;;;;5009045;28;20060;-82
2022/04/08 13:52:10;;;;;;;6.15;2.10;;;;;;;;;;5014881;28;20041;-81
2022/04/08 13:54:36;;;;;;;5.30;2.25;;;;;;;;;;5031900;28;20140;-79
2022/04/08 13:57:02;;;;;;;8.38;2.30;;;;;;;;;;5019818;28;20041;-75
2022/04/08 13:59:28;;;;;;;7.30;2.97;;;;;;;;;;5012371;28;20057;-75
2022/04/08 14:01:54;;;;;;;5.25;2.13;;;;;;;;;;5013826;28;20501;-78
2022/04/08 14:04:20;;;;;;;4.70;2.05;;;;;;;;;;5015069;28;20571;-78
2022/04/08 14:06:46;;;;;;;8.90;2.08;;;;;;;;;;5011453;28;20128;-75
2022/04/08 14:09:12;;;;;;;6.75;2.25;;;;;;;;;;5011849;28;20122;-75
2022/04/08 14:11:38;;;;;;;6.50;2.30;;;;;;;;;;5015609;28;20046;-76
2022/04/08 14:14:04;;;;;;;5.88;2.20;;;;;;;;;;5000585;28;20056;-75
2022/04/08 14:16:30;;;;;;;4.75;2.17;;;;;;;;;;4993731;28;20129;-75
2022/04/08 14:18:56;;;;;;;4.28;1.83;;;;;;;;;;5017791;28;20121;-75
2022/04/08 14:21:23;;;;;;;4.80;1.73;;;;;;;;;;5005879;28;20042;-75
2022/04/08 14:23:49;;;;;;;2.78;1.60;;;;;;;;;;5010120;28;20050;-75
2022/04/08 14:26:15;;;;;;;8.07;2.50;;;;;;;;;;4999447;28;20046;-78
2022/04/08 14:28:41;;;;;;;5.13;2.53;;;;;;;;;;5007487;28;20045;-76
2022/04/08 14:31:07;;;;;;;3.08;1.95;;;;;;;;;;5015896;28;20172;-74
2022/04/08 14:33:38;;;;;;;6.85;2.13;;;;;;;;;;5014545;28;20409;-76
2022/04/08 14:36:04;;;;;;;4.63;2.20;;;;;;;;;;5031711;28;20486;-73
2022/04/08 14:38:30;;;;;;;6.43;2.20;;;;;;;;;;5008973;28;20037;-74